createdAt,value
2023-03-08T00:01:11.590Z,70.0
2023-03-08T00:06:11.729Z,70.1
2023-03-08T00:11:11.655Z,70.2
2023-03-08T00:16:11.617Z,70.2
2023-03-08T00:21:11.886Z,70.4
2023-03-08T00:26:11.562Z,70.6
2023-03-08T00:31:11.796Z,70.4
2023-03-08T00:36:11.505Z,70.5
2023-03-08T00:41:11.545Z,70.6
2023-03-08T00:46:11.587Z,70.5
2023-03-08T00:51:11.440Z,70.8
2023-03-08T00:56:11.410Z,70.8
2023-03-08T01:01:11.608Z,70.8
2023-03-08T01:06:11.454Z,70.9
2023-03-08T01:11:11.478Z,70.9
2023-03-08T01:16:11.738Z,70.9
2023-03-08T01:21:11.392Z,70.9
2023-03-08T01:26:11.380Z,71.0
2023-03-08T01:31:11.543Z,71.1
2023-03-08T01:36:11.470Z,71.0
2023-03-08T01:41:11.339Z,71.1
2023-03-08T01:46:11.380Z,71.2
2023-03-08T01:51:11.426Z,71.2
2023-03-08T01:56:11.282Z,71.2
2023-03-08T02:01:11.439Z,71.2
2023-03-08T02:06:11.613Z,71.2
2023-03-08T02:11:11.381Z,71.2
2023-03-08T02:16:11.388Z,71.2
2023-03-08T02:21:13.323Z,71.2
2023-03-08T02:26:11.263Z,71.2
2023-03-08T02:31:11.437Z,71.2
2023-03-08T02:36:11.305Z,71.2
2023-03-08T02:41:11.250Z,71.3
2023-03-08T02:46:11.386Z,71.3
2023-03-08T02:51:11.316Z,71.3
2023-03-08T02:56:11.381Z,71.4
2023-03-08T03:01:11.189Z,71.4
2023-03-08T03:06:11.313Z,71.4
2023-03-08T03:11:11.258Z,71.4
2023-03-08T03:16:11.641Z,71.5
2023-03-08T03:21:11.187Z,71.6
2023-03-08T03:26:11.168Z,71.7
2023-03-08T03:31:11.374Z,71.7
2023-03-08T03:36:11.245Z,71.9
2023-03-08T03:41:11.219Z,71.9
2023-03-08T03:46:12.605Z,72.0
2023-03-08T03:51:11.171Z,72.0
2023-03-08T03:56:11.107Z,71.9
2023-03-08T04:01:11.086Z,72.0
2023-03-08T04:06:11.112Z,72.0
2023-03-08T04:11:11.247Z,72.0
2023-03-08T04:16:11.121Z,72.0
2023-03-08T04:21:11.051Z,72.0
2023-03-08T04:26:11.194Z,72.0
2023-03-08T04:31:11.129Z,72.0
2023-03-08T04:36:11.210Z,72.0
2023-03-08T04:41:11.168Z,72.0
2023-03-08T04:46:11.089Z,71.9
2023-03-08T04:51:11.036Z,71.9
2023-03-08T04:56:11.161Z,71.9
2023-03-08T05:01:10.999Z,72.0
2023-03-08T05:06:11.013Z,72.0
2023-03-08T05:11:11.070Z,72.0
2023-03-08T05:16:10.993Z,72.0
2023-03-08T05:21:10.988Z,72.0
2023-03-08T05:26:11.183Z,72.0
2023-03-08T05:31:11.035Z,72.0
2023-03-08T05:36:11.713Z,72.0
2023-03-08T05:41:10.929Z,72.0
2023-03-08T05:46:10.930Z,72.0
2023-03-08T05:51:11.038Z,71.9
2023-03-08T05:56:10.893Z,71.9
2023-03-08T06:01:10.980Z,71.9
2023-03-08T06:06:11.095Z,71.9
2023-03-08T06:11:10.917Z,71.8
2023-03-08T06:16:10.879Z,71.8
2023-03-08T06:21:11.587Z,71.8
2023-03-08T06:26:11.547Z,71.8
2023-03-08T06:31:11.031Z,71.8
2023-03-08T06:36:10.845Z,71.8
2023-03-08T06:41:11.100Z,71.8
2023-03-08T06:46:10.884Z,71.7
2023-03-08T06:51:10.824Z,71.7
2023-03-08T06:56:11.294Z,71.7
2023-03-08T07:01:10.835Z,71.8
2023-03-08T07:06:10.769Z,71.8
2023-03-08T07:11:10.931Z,71.9
2023-03-08T07:16:10.825Z,71.9
2023-03-08T07:21:10.730Z,72.0
2023-03-08T07:26:11.439Z,72.1
2023-03-08T07:31:11.500Z,72.2
2023-03-08T07:36:10.735Z,72.2
2023-03-08T07:41:10.730Z,72.3
2023-03-08T07:46:10.936Z,72.5
2023-03-08T07:51:11.424Z,72.5
2023-03-08T07:56:10.637Z,72.6
2023-03-08T08:01:11.389Z,72.5
2023-03-08T08:06:10.682Z,72.4
2023-03-08T08:11:10.689Z,72.5
2023-03-08T08:16:10.779Z,72.6
2023-03-08T08:21:10.748Z,72.7
2023-03-08T08:26:10.707Z,72.9
2023-03-08T08:31:10.863Z,73.2
2023-03-08T08:36:10.729Z,73.1
2023-03-08T08:46:10.900Z,73.2
2023-03-08T08:51:10.670Z,73.3
2023-03-08T08:56:23.767Z,73.4
2023-03-08T09:01:10.749Z,73.1
2023-03-08T09:06:10.595Z,73.2
2023-03-08T09:11:10.561Z,73.2
2023-03-08T09:16:10.653Z,73.3
2023-03-08T09:21:10.551Z,73.3
2023-03-08T09:26:10.520Z,73.5
2023-03-08T09:31:10.695Z,73.5
2023-03-08T09:36:10.525Z,73.1
2023-03-08T09:41:10.466Z,72.9
2023-03-08T09:46:10.641Z,73.0
2023-03-08T09:51:10.462Z,72.8
2023-03-08T09:56:10.492Z,72.8
2023-03-08T10:01:10.614Z,72.8
2023-03-08T10:06:10.431Z,73.3
2023-03-08T10:11:10.462Z,73.0
2023-03-08T10:16:10.599Z,72.8
2023-03-08T10:21:10.406Z,72.9
2023-03-08T10:26:10.435Z,72.4
2023-03-08T10:31:10.563Z,72.7
2023-03-08T10:36:10.436Z,72.3
2023-03-08T10:41:10.364Z,72.6
2023-03-08T10:46:10.547Z,72.5
2023-03-08T10:51:10.368Z,72.5
2023-03-08T10:56:10.380Z,72.3
2023-03-08T11:01:10.586Z,72.2
2023-03-08T11:06:12.278Z,72.1
2023-03-08T11:11:10.378Z,72.1
2023-03-08T11:16:10.610Z,72.0
2023-03-08T11:21:10.411Z,72.0
2023-03-08T11:26:10.344Z,71.8
2023-03-08T11:31:10.321Z,71.4
2023-03-08T11:36:12.966Z,71.5
2023-03-08T11:41:10.339Z,71.1
2023-03-08T11:46:10.535Z,71.1
2023-03-08T11:51:10.289Z,71.2
2023-03-08T11:56:10.265Z,71.4
2023-03-08T12:01:10.277Z,71.5
2023-03-08T12:06:22.875Z,71.3
2023-03-08T12:11:10.283Z,71.4
2023-03-08T12:16:10.301Z,71.2
2023-03-08T12:21:10.347Z,71.0
2023-03-08T12:26:10.249Z,70.8
2023-03-08T12:31:26.050Z,70.7
2023-03-08T12:36:10.412Z,70.6
2023-03-08T12:41:10.189Z,70.5
2023-03-08T12:46:10.246Z,70.0
2023-03-08T12:51:10.267Z,69.5
2023-03-08T12:56:10.191Z,69.4
2023-03-08T13:01:10.224Z,69.2
2023-03-08T13:06:10.483Z,69.3
2023-03-08T13:11:10.166Z,68.9
2023-03-08T13:16:10.401Z,68.7
2023-03-08T13:21:10.248Z,68.5
2023-03-08T13:26:10.244Z,68.2
2023-03-08T13:31:10.130Z,68.4
2023-03-08T13:36:10.368Z,68.0
2023-03-08T13:41:10.152Z,67.8
2023-03-08T13:46:10.241Z,67.8
2023-03-08T13:51:10.338Z,67.2
2023-03-08T13:56:10.253Z,66.9
2023-03-08T14:01:10.162Z,66.2
2023-03-08T14:06:10.434Z,66.5
2023-03-08T14:11:10.149Z,66.6
2023-03-08T14:16:10.282Z,66.5
2023-03-08T14:21:10.381Z,66.4
2023-03-08T14:26:10.254Z,65.5
2023-03-08T14:31:10.101Z,65.8
2023-03-08T14:36:10.038Z,65.4
2023-03-08T14:41:09.976Z,64.2
2023-03-08T14:46:09.986Z,64.5
2023-03-08T14:51:10.192Z,64.8
2023-03-08T14:56:09.949Z,64.1
2023-03-08T15:01:10.028Z,64.6
2023-03-08T15:06:10.180Z,64.6
2023-03-08T15:11:11.063Z,63.8
2023-03-08T15:16:10.504Z,63.8
2023-03-08T15:26:09.962Z,63.8
2023-03-08T15:31:10.031Z,63.8
2023-03-08T15:36:10.120Z,63.6
2023-03-08T15:41:09.831Z,64.1
2023-03-08T15:46:09.865Z,64.4
2023-03-08T15:51:10.199Z,64.6
2023-03-08T15:56:09.775Z,64.9
2023-03-08T16:01:09.962Z,65.2
2023-03-08T16:06:09.933Z,65.7
2023-03-08T16:11:09.881Z,66.1
2023-03-08T16:16:09.853Z,66.3
2023-03-08T16:21:09.985Z,66.6
2023-03-08T16:26:15.853Z,66.8
2023-03-08T16:31:09.994Z,67.0
2023-03-08T16:36:10.017Z,67.2
2023-03-08T16:41:13.966Z,67.4
2023-03-08T16:46:09.969Z,67.5
2023-03-08T16:51:09.975Z,67.8
2023-03-08T16:56:09.834Z,67.9
2023-03-08T17:01:09.729Z,68.1
2023-03-08T17:06:09.927Z,68.3
2023-03-08T17:11:09.852Z,68.5
2023-03-08T17:16:09.825Z,68.7
2023-03-08T17:21:09.911Z,68.9
2023-03-08T17:26:09.755Z,69.0
2023-03-08T17:31:09.860Z,69.2
2023-03-08T17:36:09.947Z,69.3
2023-03-08T17:41:09.718Z,69.5
2023-03-08T17:46:09.748Z,69.6
2023-03-08T17:51:09.823Z,69.8
2023-03-08T17:56:09.621Z,70.0
2023-03-08T18:01:09.635Z,70.1
2023-03-08T18:06:09.769Z,70.3
2023-03-08T18:11:09.648Z,70.4
2023-03-08T18:16:09.597Z,70.6
2023-03-08T18:21:13.864Z,70.7
2023-03-08T18:26:09.576Z,70.8
2023-03-08T18:31:09.635Z,71.0
2023-03-08T18:36:09.756Z,71.1
2023-03-08T18:41:09.542Z,71.1
2023-03-08T18:46:09.600Z,71.2
2023-03-08T18:51:09.792Z,71.3
2023-03-08T18:56:09.525Z,71.4
2023-03-08T19:01:09.739Z,71.5
2023-03-08T19:06:09.772Z,71.6
2023-03-08T19:11:10.345Z,71.7
2023-03-08T19:16:10.308Z,71.8
2023-03-08T19:21:10.249Z,71.9
2023-03-08T19:26:09.568Z,72.0
2023-03-08T19:31:09.560Z,72.0
2023-03-08T19:36:09.553Z,72.1
2023-03-08T19:41:09.746Z,72.2
2023-03-08T19:46:09.693Z,72.2
2023-03-08T19:51:09.512Z,72.3
2023-03-08T19:56:09.425Z,72.4
2023-03-08T20:01:10.725Z,72.5
2023-03-08T20:06:09.653Z,72.6
2023-03-08T20:11:09.473Z,72.6
2023-03-08T20:16:10.276Z,72.7
2023-03-08T20:21:10.251Z,72.8
2023-03-08T20:26:09.390Z,72.9
2023-03-08T20:31:09.465Z,73.0
2023-03-08T20:36:09.515Z,73.1
2023-03-08T20:41:09.338Z,73.2
2023-03-08T20:46:09.482Z,73.3
2023-03-08T20:51:09.616Z,73.3
2023-03-08T20:56:09.364Z,73.4
2023-03-08T21:01:09.346Z,73.5
2023-03-08T21:06:09.305Z,73.6
2023-03-08T21:11:09.351Z,73.8
2023-03-08T21:16:09.572Z,73.9
2023-03-08T21:21:09.371Z,74.0
2023-03-08T21:26:09.345Z,74.0
2023-03-08T21:31:09.519Z,74.1
2023-03-08T21:36:09.330Z,74.2
2023-03-08T21:41:09.290Z,74.2
2023-03-08T21:46:09.612Z,74.3
2023-03-08T21:51:09.242Z,74.4
2023-03-08T21:56:09.282Z,74.4
2023-03-08T22:01:10.031Z,74.5
2023-03-08T22:06:09.298Z,74.5
2023-03-08T22:11:09.150Z,74.6
2023-03-08T22:16:09.219Z,74.7
2023-03-08T22:21:09.831Z,74.7
2023-03-08T22:26:09.104Z,74.8
2023-03-08T22:31:09.354Z,74.9
2023-03-08T22:36:09.173Z,75.0
2023-03-08T22:41:09.365Z,75.1
2023-03-08T22:46:09.208Z,75.2
2023-03-08T22:51:11.434Z,75.3
2023-03-08T22:56:10.275Z,75.4
2023-03-08T23:01:09.147Z,75.5
2023-03-08T23:06:09.089Z,75.6
2023-03-08T23:11:09.089Z,75.7
2023-03-08T23:16:09.332Z,75.8
2023-03-08T23:21:09.267Z,75.8
2023-03-08T23:26:09.083Z,75.9
2023-03-08T23:31:09.137Z,76.0
2023-03-08T23:36:09.840Z,76.0
2023-03-08T23:41:09.827Z,76.1
2023-03-08T23:46:09.073Z,76.2
2023-03-08T23:51:09.077Z,76.2
2023-03-08T23:56:09.200Z,76.3
